createdAt,value
2022-11-16T00:00:50.947Z,50.25
2022-11-16T00:03:18.042Z,50.59
2022-11-16T00:05:45.137Z,50.67
2022-11-16T00:08:12.198Z,50.52
2022-11-16T00:10:39.283Z,50.73
2022-11-16T00:13:06.363Z,50.66
2022-11-16T00:15:33.441Z,50.85
2022-11-16T00:18:00.575Z,50.97
2022-11-16T00:20:27.686Z,50.97
2022-11-16T00:22:54.749Z,50.82
2022-11-16T00:25:22.404Z,50.97
2022-11-16T00:27:49.564Z,50.99
2022-11-16T00:30:16.639Z,50.87
2022-11-16T00:32:43.710Z,50.89
2022-11-16T00:35:10.828Z,51.11
2022-11-16T00:37:37.949Z,51.07
2022-11-16T00:40:05.102Z,51.34
2022-11-16T00:42:32.461Z,51.42
2022-11-16T00:44:59.548Z,51.46
2022-11-16T00:47:27.331Z,51.27
2022-11-16T00:49:54.443Z,51.32
2022-11-16T00:52:21.535Z,51.36
2022-11-16T00:54:48.650Z,51.42
2022-11-16T00:57:15.754Z,51.51
2022-11-16T00:59:42.832Z,51.53
2022-11-16T01:02:09.902Z,51.21
2022-11-16T01:04:36.975Z,51.42
2022-11-16T01:07:04.118Z,51.30
2022-11-16T01:09:31.230Z,51.19
2022-11-16T01:12:10.664Z,51.35
2022-11-16T01:14:37.825Z,51.18
2022-11-16T01:17:04.918Z,51.32
2022-11-16T01:19:31.996Z,51.13
2022-11-16T01:21:59.145Z,51.25
2022-11-16T01:24:26.281Z,51.02
2022-11-16T01:26:56.920Z,51.16
2022-11-16T01:29:24.026Z,51.17
2022-11-16T01:31:51.129Z,50.94
2022-11-16T01:34:18.369Z,50.99
2022-11-16T01:36:45.484Z,51.16
2022-11-16T01:39:12.607Z,50.99
2022-11-16T01:41:39.686Z,51.10
2022-11-16T01:44:06.768Z,50.85
2022-11-16T01:46:33.845Z,50.99
2022-11-16T01:49:00.968Z,51.11
2022-11-16T01:51:28.050Z,50.78
2022-11-16T01:53:55.156Z,51.05
2022-11-16T01:56:22.287Z,51.15
2022-11-16T01:58:49.354Z,51.11
2022-11-16T02:01:16.469Z,51.11
2022-11-16T02:03:43.627Z,51.07
2022-11-16T02:06:10.722Z,50.99
2022-11-16T02:08:56.622Z,50.88
2022-11-16T02:11:23.717Z,50.95
2022-11-16T02:13:51.572Z,50.92
2022-11-16T02:16:18.741Z,50.92
2022-11-16T02:18:45.815Z,51.09
2022-11-16T02:21:12.872Z,50.81
2022-11-16T02:23:40.053Z,51.11
2022-11-16T02:26:07.118Z,51.04
2022-11-16T02:28:34.422Z,50.87
2022-11-16T02:31:01.738Z,50.99
2022-11-16T02:33:28.813Z,51.09
2022-11-16T02:35:55.962Z,51.01
2022-11-16T02:38:23.027Z,51.16
2022-11-16T02:40:50.110Z,50.89
2022-11-16T02:43:17.245Z,50.90
2022-11-16T02:45:44.314Z,51.01
2022-11-16T02:48:11.370Z,51.05
2022-11-16T02:50:38.460Z,50.95
2022-11-16T02:53:05.534Z,51.18
2022-11-16T02:55:32.617Z,51.11
2022-11-16T02:57:59.702Z,51.12
2022-11-16T03:00:26.778Z,50.96
2022-11-16T03:02:53.863Z,50.96
2022-11-16T03:05:20.980Z,50.83
2022-11-16T03:07:48.086Z,51.20
2022-11-16T03:10:35.151Z,51.12
2022-11-16T03:13:02.235Z,50.78
2022-11-16T03:15:29.323Z,50.95
2022-11-16T03:17:56.414Z,50.96
2022-11-16T03:20:23.520Z,51.11
2022-11-16T03:22:50.610Z,51.15
2022-11-16T03:25:17.690Z,50.94
2022-11-16T03:27:45.005Z,51.25
2022-11-16T03:30:12.092Z,51.09
2022-11-16T03:32:39.263Z,51.07
2022-11-16T03:35:06.389Z,50.99
2022-11-16T03:37:33.505Z,50.93
2022-11-16T03:40:01.131Z,50.87
2022-11-16T03:42:28.207Z,51.00
2022-11-16T03:44:55.278Z,50.98
2022-11-16T03:47:22.379Z,50.94
2022-11-16T03:49:49.633Z,51.18
2022-11-16T03:52:16.691Z,51.14
2022-11-16T03:54:43.800Z,51.22
2022-11-16T03:57:18.187Z,51.14
2022-11-16T03:59:45.378Z,51.00
2022-11-16T04:02:12.480Z,50.91
2022-11-16T04:04:58.211Z,51.05
2022-11-16T04:07:44.133Z,50.98
2022-11-16T04:10:30.014Z,51.05
2022-11-16T04:13:16.027Z,51.07
2022-11-16T04:16:01.513Z,50.80
2022-11-16T04:18:47.477Z,50.99
2022-11-16T04:21:33.067Z,50.96
2022-11-16T04:24:12.200Z,50.86
2022-11-16T04:26:58.055Z,50.95
2022-11-16T04:29:25.113Z,51.05
2022-11-16T04:32:10.755Z,50.77
2022-11-16T04:34:56.698Z,51.04
2022-11-16T04:37:42.595Z,50.95
2022-11-16T04:40:09.739Z,50.94
2022-11-16T04:42:36.826Z,51.04
2022-11-16T04:45:22.305Z,50.95
2022-11-16T04:47:49.592Z,50.90
2022-11-16T04:50:16.653Z,50.84
2022-11-16T04:52:43.754Z,51.07
2022-11-16T04:55:10.846Z,50.70
2022-11-16T04:57:37.916Z,50.82
2022-11-16T05:00:04.978Z,50.95
2022-11-16T05:02:32.088Z,50.83
2022-11-16T05:04:59.206Z,50.97
2022-11-16T05:07:26.387Z,51.01
2022-11-16T05:09:53.468Z,50.84
2022-11-16T05:12:20.601Z,50.93
2022-11-16T05:14:47.672Z,50.96
2022-11-16T05:17:14.761Z,50.98
2022-11-16T05:20:00.673Z,50.79
2022-11-16T05:22:27.751Z,50.99
2022-11-16T05:24:54.858Z,50.93
2022-11-16T05:27:21.929Z,50.88
2022-11-16T05:29:51.848Z,50.76
2022-11-16T05:32:18.916Z,50.74
2022-11-16T05:34:46.061Z,50.79
2022-11-16T05:37:13.212Z,50.88
2022-11-16T05:39:40.368Z,50.80
2022-11-16T05:42:07.662Z,50.87
2022-11-16T05:44:34.731Z,50.96
2022-11-16T05:47:03.146Z,50.84
2022-11-16T05:49:30.221Z,50.60
2022-11-16T05:51:57.329Z,50.74
2022-11-16T05:54:27.588Z,50.86
2022-11-16T05:56:54.694Z,50.78
2022-11-16T05:59:21.933Z,50.86
2022-11-16T06:01:49.083Z,50.82
2022-11-16T06:04:16.214Z,50.96
2022-11-16T06:06:43.439Z,50.67
2022-11-16T06:09:10.549Z,50.70
2022-11-16T06:11:38.242Z,50.55
2022-11-16T06:14:05.426Z,50.72
2022-11-16T06:16:32.509Z,50.81
2022-11-16T06:18:59.601Z,50.87
2022-11-16T06:21:26.720Z,50.61
2022-11-16T06:23:53.893Z,50.89
2022-11-16T06:26:20.996Z,50.73
2022-11-16T06:28:48.098Z,50.68
2022-11-16T06:31:15.182Z,50.69
2022-11-16T06:33:42.258Z,50.67
2022-11-16T06:36:09.343Z,50.86
2022-11-16T06:38:36.708Z,50.83
2022-11-16T06:41:04.149Z,50.77
2022-11-16T06:43:31.333Z,50.68
2022-11-16T06:45:58.643Z,50.85
2022-11-16T06:48:25.728Z,50.81
2022-11-16T06:50:52.810Z,50.63
2022-11-16T06:53:21.621Z,50.82
2022-11-16T06:55:51.779Z,50.62
2022-11-16T06:58:18.863Z,50.86
2022-11-16T07:00:45.926Z,50.70
2022-11-16T07:03:13.064Z,50.69
2022-11-16T07:05:40.775Z,50.67
2022-11-16T07:08:08.221Z,50.58
2022-11-16T07:10:35.455Z,50.59
2022-11-16T07:13:03.166Z,50.75
2022-11-16T07:15:30.291Z,50.61
2022-11-16T07:17:57.365Z,50.60
2022-11-16T07:20:24.519Z,50.76
2022-11-16T07:22:51.609Z,50.72
2022-11-16T07:25:18.739Z,50.76
2022-11-16T07:27:45.826Z,50.86
2022-11-16T07:30:12.894Z,50.62
2022-11-16T07:32:58.922Z,50.79
2022-11-16T07:35:44.890Z,50.63
2022-11-16T07:38:30.813Z,50.81
2022-11-16T07:41:28.148Z,50.83
2022-11-16T07:44:14.144Z,50.79
2022-11-16T07:46:59.821Z,50.69
2022-11-16T07:49:26.890Z,50.56
2022-11-16T07:51:53.954Z,50.75
2022-11-16T07:54:21.006Z,50.57
2022-11-16T07:56:48.087Z,50.72
2022-11-16T07:59:15.211Z,50.62
2022-11-16T08:01:42.368Z,50.74
2022-11-16T08:04:09.470Z,50.73
2022-11-16T08:06:36.865Z,50.60
2022-11-16T08:09:04.063Z,50.60
2022-11-16T08:11:31.165Z,50.69
2022-11-16T08:13:58.363Z,50.57
2022-11-16T08:16:28.410Z,50.47
2022-11-16T08:18:55.521Z,50.62
2022-11-16T08:21:22.603Z,50.58
2022-11-16T08:23:53.842Z,50.61
2022-11-16T08:26:23.998Z,50.81
2022-11-16T08:28:51.294Z,50.66
2022-11-16T08:31:18.654Z,50.52
2022-11-16T08:33:45.743Z,50.58
2022-11-16T08:36:17.192Z,50.44
2022-11-16T08:38:44.640Z,50.76
2022-11-16T08:41:12.053Z,50.54
2022-11-16T08:43:41.830Z,50.72
2022-11-16T08:46:08.923Z,50.66
2022-11-16T08:48:36.505Z,50.42
2022-11-16T08:51:20.616Z,50.62
2022-11-16T08:53:49.136Z,50.44
2022-11-16T08:56:17.147Z,50.79
2022-11-16T08:58:46.410Z,50.59
2022-11-16T09:01:13.947Z,50.66
2022-11-16T09:03:41.159Z,50.46
2022-11-16T09:06:08.278Z,50.67
2022-11-16T09:08:35.630Z,50.53
2022-11-16T09:11:02.967Z,50.63
2022-11-16T09:13:30.053Z,50.62
2022-11-16T09:15:57.465Z,50.82
2022-11-16T09:18:24.621Z,50.98
2022-11-16T09:20:51.729Z,50.81
2022-11-16T09:23:24.860Z,50.58
2022-11-16T09:25:52.510Z,50.79
2022-11-16T09:28:19.748Z,50.54
2022-11-16T09:30:46.807Z,50.73
2022-11-16T09:33:13.911Z,50.63
2022-11-16T09:35:41.010Z,50.81
2022-11-16T09:38:09.960Z,50.60
2022-11-16T09:40:37.085Z,50.65
2022-11-16T09:43:04.223Z,50.72
2022-11-16T09:45:31.299Z,50.59
2022-11-16T09:47:59.476Z,50.58
2022-11-16T09:50:26.584Z,50.62
2022-11-16T09:52:53.682Z,50.48
2022-11-16T09:55:20.808Z,51.05
2022-11-16T09:57:47.924Z,51.36
2022-11-16T10:00:15.510Z,51.34
2022-11-16T10:02:42.642Z,51.46
2022-11-16T10:05:10.733Z,52.11
2022-11-16T10:07:37.989Z,52.27
2022-11-16T10:10:05.231Z,51.87
2022-11-16T10:12:32.565Z,51.67
2022-11-16T10:15:01.817Z,51.43
2022-11-16T10:17:29.078Z,51.88
2022-11-16T10:19:56.267Z,51.61
2022-11-16T10:22:23.366Z,51.42
2022-11-16T10:24:51.077Z,51.80
2022-11-16T10:27:22.043Z,51.47
2022-11-16T10:29:49.422Z,51.55
2022-11-16T10:32:16.522Z,51.34
2022-11-16T10:34:43.978Z,51.25
2022-11-16T10:37:11.045Z,51.45
2022-11-16T10:39:41.007Z,51.29
2022-11-16T10:42:08.174Z,51.37
2022-11-16T10:44:35.273Z,50.89
2022-11-16T10:47:02.365Z,50.98
2022-11-16T10:49:29.440Z,51.27
2022-11-16T10:51:56.556Z,51.30
2022-11-16T10:54:23.641Z,51.07
2022-11-16T10:56:50.709Z,50.84
2022-11-16T10:59:17.790Z,51.20
2022-11-16T11:01:44.927Z,51.17
2022-11-16T11:04:12.158Z,50.97
2022-11-16T11:06:39.337Z,51.18
2022-11-16T11:09:06.414Z,50.98
2022-11-16T11:11:52.460Z,50.81
2022-11-16T11:14:19.478Z,50.74
2022-11-16T11:16:46.561Z,51.01
2022-11-16T11:19:13.635Z,51.15
2022-11-16T11:21:40.751Z,50.69
2022-11-16T11:24:42.281Z,50.70
2022-11-16T11:26:54.892Z,50.70
2022-11-16T11:29:22.028Z,50.66
2022-11-16T11:31:49.178Z,50.66
2022-11-16T11:34:16.291Z,50.70
2022-11-16T11:36:43.442Z,50.85
2022-11-16T11:39:10.529Z,50.41
2022-11-16T11:41:37.725Z,50.58
2022-11-16T11:44:04.930Z,50.86
2022-11-16T11:46:59.761Z,50.79
2022-11-16T11:49:19.119Z,50.66
2022-11-16T11:51:47.017Z,50.56
2022-11-16T11:54:14.094Z,50.53
2022-11-16T11:56:41.172Z,50.78
2022-11-16T11:59:08.226Z,50.77
2022-11-16T12:01:35.377Z,50.78
2022-11-16T12:04:02.443Z,50.65
2022-11-16T12:06:29.550Z,50.80
2022-11-16T12:08:56.640Z,50.86
2022-11-16T12:11:23.705Z,51.38
2022-11-16T12:13:51.239Z,50.83
2022-11-16T12:16:18.310Z,50.92
2022-11-16T12:18:45.377Z,50.85
2022-11-16T12:21:13.241Z,50.49
2022-11-16T12:23:40.737Z,50.82
2022-11-16T12:26:07.796Z,50.77
2022-11-16T12:28:35.052Z,50.90
2022-11-16T12:31:02.158Z,50.79
2022-11-16T12:33:29.350Z,51.00
2022-11-16T12:35:56.461Z,50.89
2022-11-16T12:38:26.514Z,50.84
2022-11-16T12:40:53.704Z,51.18
2022-11-16T12:43:20.809Z,51.25
2022-11-16T12:45:47.993Z,51.46
2022-11-16T12:48:15.665Z,51.30
2022-11-16T12:50:42.959Z,51.11
2022-11-16T12:53:10.547Z,51.07
2022-11-16T12:55:37.613Z,51.07
2022-11-16T12:58:04.704Z,50.73
2022-11-16T13:00:31.824Z,51.14
2022-11-16T13:02:58.947Z,51.74
2022-11-16T13:05:26.021Z,51.78
2022-11-16T13:07:54.848Z,51.34
2022-11-16T13:10:22.543Z,51.35
2022-11-16T13:12:52.683Z,51.31
2022-11-16T13:15:22.975Z,51.30
2022-11-16T13:17:50.056Z,51.46
2022-11-16T13:20:17.186Z,51.58
2022-11-16T13:22:44.941Z,51.27
2022-11-16T13:25:12.052Z,51.37
2022-11-16T13:27:39.443Z,51.62
2022-11-16T13:30:06.538Z,51.53
2022-11-16T13:32:36.648Z,51.46
2022-11-16T13:35:03.718Z,51.14
2022-11-16T13:37:30.792Z,51.31
2022-11-16T13:40:01.991Z,51.62
2022-11-16T13:42:30.163Z,51.87
2022-11-16T13:44:57.261Z,51.72
2022-11-16T13:47:24.844Z,52.80
2022-11-16T13:49:51.916Z,52.28
2022-11-16T13:52:24.155Z,52.25
2022-11-16T13:54:56.960Z,52.38
2022-11-16T13:57:24.574Z,52.01
2022-11-16T13:59:51.652Z,52.06
2022-11-16T14:02:18.721Z,52.16
2022-11-16T14:04:45.831Z,52.65
2022-11-16T14:07:12.982Z,52.27
2022-11-16T14:09:40.088Z,52.16
2022-11-16T14:12:07.158Z,51.85
2022-11-16T14:14:34.305Z,51.92
2022-11-16T14:17:01.397Z,52.18
2022-11-16T14:19:28.517Z,52.00
2022-11-16T14:21:55.604Z,51.91
2022-11-16T14:24:22.675Z,51.99
2022-11-16T14:26:49.760Z,51.77
2022-11-16T14:29:16.851Z,52.75
2022-11-16T14:31:44.004Z,52.16
2022-11-16T14:34:11.082Z,51.92
2022-11-16T14:36:38.271Z,51.71
2022-11-16T14:39:05.341Z,51.90
2022-11-16T14:41:32.444Z,52.15
2022-11-16T14:43:59.545Z,51.95
2022-11-16T14:46:26.631Z,52.14
2022-11-16T14:48:53.699Z,52.25
2022-11-16T14:51:20.755Z,52.15
2022-11-16T14:53:47.842Z,51.88
2022-11-16T14:56:15.080Z,52.07
2022-11-16T14:58:42.209Z,53.35
2022-11-16T15:01:09.361Z,54.66
2022-11-16T15:03:37.084Z,53.90
2022-11-16T15:06:04.515Z,54.90
2022-11-16T15:08:31.825Z,53.92
2022-11-16T15:10:58.906Z,53.55
2022-11-16T15:13:26.052Z,53.54
2022-11-16T15:15:54.536Z,53.31
2022-11-16T15:18:23.236Z,53.24
2022-11-16T15:20:50.495Z,53.23
2022-11-16T15:23:17.587Z,53.34
2022-11-16T15:25:45.037Z,52.97
2022-11-16T15:28:12.097Z,53.16
2022-11-16T15:30:40.369Z,53.06
2022-11-16T15:33:07.453Z,52.97
2022-11-16T15:35:34.515Z,53.09
2022-11-16T15:38:01.591Z,53.08
2022-11-16T15:40:28.814Z,53.04
2022-11-16T15:42:55.963Z,53.29
2022-11-16T15:45:23.077Z,53.08
2022-11-16T15:47:50.239Z,52.99
2022-11-16T15:50:18.222Z,53.14
2022-11-16T15:52:45.379Z,52.97
2022-11-16T15:55:12.468Z,52.76
2022-11-16T15:57:44.039Z,52.72
2022-11-16T16:00:13.583Z,52.45
2022-11-16T16:02:40.747Z,52.68
2022-11-16T16:05:07.813Z,52.92
2022-11-16T16:07:34.949Z,53.24
2022-11-16T16:10:02.106Z,52.85
2022-11-16T16:12:29.209Z,52.85
2022-11-16T16:14:56.283Z,52.92
2022-11-16T16:17:23.403Z,52.80
2022-11-16T16:19:50.954Z,53.02
2022-11-16T16:22:18.396Z,53.03
2022-11-16T16:24:45.644Z,52.96
2022-11-16T16:27:12.826Z,53.04
2022-11-16T16:29:39.973Z,53.04
2022-11-16T16:32:07.066Z,52.92
2022-11-16T16:34:37.781Z,52.80
2022-11-16T16:37:06.428Z,52.80
2022-11-16T16:39:36.067Z,52.82
2022-11-16T16:42:03.178Z,52.80
2022-11-16T16:44:30.280Z,52.67
2022-11-16T16:46:57.442Z,52.50
2022-11-16T16:49:24.561Z,52.59
2022-11-16T16:51:51.638Z,52.74
2022-11-16T16:54:18.704Z,52.87
2022-11-16T16:56:45.782Z,52.88
2022-11-16T16:59:12.884Z,52.90
2022-11-16T17:01:39.951Z,52.75
2022-11-16T17:04:07.135Z,52.77
2022-11-16T17:06:34.221Z,52.66
2022-11-16T17:09:01.299Z,52.63
2022-11-16T17:11:28.946Z,52.54
2022-11-16T17:13:56.011Z,52.60
2022-11-16T17:16:23.257Z,52.48
2022-11-16T17:18:50.333Z,52.52
2022-11-16T17:21:17.397Z,52.36
2022-11-16T17:23:44.486Z,52.50
2022-11-16T17:26:11.565Z,52.43
2022-11-16T17:28:38.743Z,52.50
2022-11-16T17:31:05.869Z,52.50
2022-11-16T17:33:33.331Z,52.43
2022-11-16T17:36:02.907Z,52.44
2022-11-16T17:38:29.987Z,52.54
2022-11-16T17:40:57.118Z,52.50
2022-11-16T17:43:24.242Z,52.28
2022-11-16T17:45:51.316Z,52.76
2022-11-16T17:48:18.478Z,52.56
2022-11-16T17:50:45.600Z,52.72
2022-11-16T17:53:12.700Z,52.36
2022-11-16T17:55:39.762Z,52.47
2022-11-16T17:58:06.936Z,52.71
2022-11-16T18:00:34.017Z,52.64
2022-11-16T18:03:01.489Z,53.05
2022-11-16T18:05:28.624Z,52.85
2022-11-16T18:07:55.742Z,53.09
2022-11-16T18:10:22.823Z,52.97
2022-11-16T18:12:49.907Z,52.88
2022-11-16T18:15:33.164Z,52.80
2022-11-16T18:18:02.483Z,52.91
2022-11-16T18:20:29.601Z,52.88
2022-11-16T18:22:56.688Z,53.18
2022-11-16T18:25:23.755Z,52.98
2022-11-16T18:27:50.867Z,53.09
2022-11-16T18:30:17.934Z,53.15
2022-11-16T18:32:45.029Z,53.18
2022-11-16T18:35:12.112Z,53.29
2022-11-16T18:37:39.250Z,53.17
2022-11-16T18:40:06.393Z,53.26
2022-11-16T18:42:33.569Z,53.30
2022-11-16T18:45:00.662Z,53.46
2022-11-16T18:47:27.799Z,53.08
2022-11-16T18:49:54.954Z,53.23
2022-11-16T18:52:22.095Z,53.38
2022-11-16T18:54:49.229Z,53.68
2022-11-16T18:57:16.343Z,53.24
2022-11-16T18:59:43.453Z,53.41
2022-11-16T19:02:10.564Z,53.61
2022-11-16T19:04:40.060Z,53.13
2022-11-16T19:07:07.835Z,53.57
2022-11-16T19:09:35.143Z,53.67
2022-11-16T19:12:02.274Z,53.62
2022-11-16T19:14:29.387Z,53.79
2022-11-16T19:16:57.405Z,53.33
2022-11-16T19:19:25.416Z,53.74
2022-11-16T19:21:52.600Z,53.65
2022-11-16T19:24:19.841Z,53.64
2022-11-16T19:26:47.106Z,53.47
2022-11-16T19:29:14.306Z,53.67
2022-11-16T19:31:41.505Z,53.63
2022-11-16T19:34:08.763Z,53.47
2022-11-16T19:36:36.121Z,53.53
2022-11-16T19:39:03.461Z,53.82
2022-11-16T19:41:30.699Z,53.82
2022-11-16T19:43:59.782Z,53.85
2022-11-16T19:46:27.069Z,53.69
2022-11-16T19:48:54.363Z,53.98
2022-11-16T19:51:21.612Z,53.96
2022-11-16T19:53:48.970Z,53.86
2022-11-16T19:56:16.449Z,54.24
2022-11-16T19:58:43.848Z,53.60
2022-11-16T20:01:11.270Z,53.70
2022-11-16T20:03:38.913Z,53.92
2022-11-16T20:06:06.567Z,54.02
2022-11-16T20:08:34.085Z,53.92
2022-11-16T20:11:01.453Z,53.75
2022-11-16T20:13:28.979Z,53.66
2022-11-16T20:15:56.373Z,53.62
2022-11-16T20:18:23.770Z,53.89
2022-11-16T20:20:51.177Z,54.05
2022-11-16T20:23:19.661Z,53.89
2022-11-16T20:25:47.053Z,54.06
2022-11-16T20:28:14.472Z,54.12
2022-11-16T20:30:41.844Z,53.81
2022-11-16T20:33:09.228Z,53.80
2022-11-16T20:35:36.637Z,54.00
2022-11-16T20:38:03.939Z,53.68
2022-11-16T20:40:31.443Z,53.79
2022-11-16T20:43:00.425Z,53.85
2022-11-16T20:45:27.735Z,53.87
2022-11-16T20:47:54.967Z,54.10
2022-11-16T20:50:22.221Z,53.99
2022-11-16T20:52:52.693Z,53.78
2022-11-16T20:55:20.342Z,54.04
2022-11-16T20:57:47.524Z,54.00
2022-11-16T21:00:14.694Z,53.93
2022-11-16T21:02:41.956Z,53.84
2022-11-16T21:05:09.222Z,54.08
2022-11-16T21:07:36.525Z,54.00
2022-11-16T21:10:18.735Z,53.94
2022-11-16T21:13:04.375Z,54.00
2022-11-16T21:15:31.488Z,53.76
2022-11-16T21:17:58.726Z,53.98
2022-11-16T21:20:27.783Z,53.67
2022-11-16T21:22:55.379Z,53.79
2022-11-16T21:25:22.450Z,54.19
2022-11-16T21:27:49.584Z,54.11
2022-11-16T21:30:18.947Z,54.26
2022-11-16T21:32:46.025Z,54.35
2022-11-16T21:35:13.281Z,54.28
2022-11-16T21:37:40.355Z,54.29
2022-11-16T21:40:07.441Z,54.31
2022-11-16T21:42:34.521Z,54.48
2022-11-16T21:45:01.668Z,54.25
2022-11-16T21:47:29.203Z,54.42
2022-11-16T21:50:24.905Z,53.98
2022-11-16T21:52:43.408Z,54.16
2022-11-16T21:55:10.478Z,54.10
2022-11-16T21:57:37.655Z,53.99
2022-11-16T22:00:04.708Z,53.87
2022-11-16T22:02:31.806Z,53.76
2022-11-16T22:05:17.754Z,53.49
2022-11-16T22:07:44.828Z,53.46
2022-11-16T22:10:11.905Z,53.62
2022-11-16T22:12:39.000Z,53.58
2022-11-16T22:15:06.074Z,53.67
2022-11-16T22:17:33.156Z,53.53
2022-11-16T22:20:00.310Z,53.41
2022-11-16T22:22:27.423Z,53.22
2022-11-16T22:24:54.729Z,53.48
2022-11-16T22:27:21.890Z,53.37
2022-11-16T22:29:49.005Z,53.55
2022-11-16T22:32:16.137Z,53.38
2022-11-16T22:34:43.403Z,53.42
2022-11-16T22:37:10.474Z,53.55
2022-11-16T22:39:37.854Z,53.49
2022-11-16T22:42:05.079Z,53.50
2022-11-16T22:44:32.134Z,53.33
2022-11-16T22:46:59.198Z,53.61
2022-11-16T22:49:26.320Z,53.47
2022-11-16T22:51:53.449Z,53.31
2022-11-16T22:54:23.403Z,53.34
2022-11-16T22:56:54.466Z,53.30
2022-11-16T22:59:21.611Z,53.41
2022-11-16T23:01:48.668Z,53.33
2022-11-16T23:04:15.892Z,53.40
2022-11-16T23:06:42.961Z,53.31
2022-11-16T23:09:10.043Z,53.22
2022-11-16T23:11:55.832Z,53.45
2022-11-16T23:14:41.511Z,53.39
2022-11-16T23:17:08.571Z,53.38
2022-11-16T23:19:54.550Z,53.44
2022-11-16T23:22:40.673Z,53.42
2022-11-16T23:25:26.557Z,53.33
2022-11-16T23:27:54.300Z,53.18
2022-11-16T23:30:21.364Z,53.30
2022-11-16T23:32:48.429Z,53.38
2022-11-16T23:35:15.497Z,53.23
2022-11-16T23:37:42.566Z,53.28
2022-11-16T23:40:09.618Z,53.38
2022-11-16T23:43:09.096Z,53.25
2022-11-16T23:45:36.149Z,53.38
2022-11-16T23:48:03.253Z,53.27
2022-11-16T23:50:30.385Z,53.35
2022-11-16T23:52:57.462Z,52.95
2022-11-16T23:55:24.561Z,53.21
2022-11-16T23:57:51.683Z,53.03
